createdAt,value
2018-06-03T00:01:47.645Z,2.57
2018-06-03T00:04:15.109Z,2.47
2018-06-03T00:06:42.669Z,2.73
2018-06-03T00:09:10.164Z,2.27
2018-06-03T00:11:36.877Z,2.17
2018-06-03T00:14:04.271Z,2.40
2018-06-03T00:16:30.527Z,2.70
2018-06-03T00:18:56.780Z,2.63
2018-06-03T00:21:35.352Z,3.63
2018-06-03T00:24:01.599Z,2.53
2018-06-03T00:26:27.917Z,2.57
2018-06-03T00:28:54.505Z,2.40
2018-06-03T00:31:20.725Z,2.70
2018-06-03T00:33:46.936Z,2.00
2018-06-03T00:36:25.535Z,2.53
2018-06-03T00:38:51.757Z,2.60
2018-06-03T00:41:19.541Z,2.27
2018-06-03T00:43:46.520Z,2.20
2018-06-03T00:46:12.757Z,2.70
2018-06-03T00:48:39.414Z,2.20
2018-06-03T00:51:05.647Z,2.50
2018-06-03T00:53:32.365Z,2.53
2018-06-03T00:55:59.113Z,3.00
2018-06-03T00:58:25.334Z,2.20
2018-06-03T01:00:52.397Z,2.13
2018-06-03T01:03:18.623Z,2.67
2018-06-03T01:05:44.865Z,2.40
2018-06-03T01:08:11.689Z,2.70
2018-06-03T01:10:38.645Z,2.67
2018-06-03T01:13:05.475Z,2.63
2018-06-03T01:15:32.449Z,2.87
2018-06-03T01:17:59.273Z,2.80
2018-06-03T01:20:26.247Z,2.30
2018-06-03T01:22:52.469Z,1.83
2018-06-03T01:25:19.444Z,2.30
2018-06-03T01:27:46.309Z,1.80
2018-06-03T01:30:12.541Z,2.23
2018-06-03T01:32:38.765Z,2.33
2018-06-03T01:35:05.029Z,2.20
2018-06-03T01:37:31.266Z,2.00
2018-06-03T01:39:58.701Z,2.20
2018-06-03T01:42:25.433Z,2.20
2018-06-03T01:44:52.366Z,1.93
2018-06-03T01:47:19.061Z,1.73
2018-06-03T01:49:45.960Z,2.00
2018-06-03T01:52:12.205Z,2.10
2018-06-03T01:54:38.925Z,2.73
2018-06-03T01:57:05.885Z,2.00
2018-06-03T01:59:33.288Z,2.30
2018-06-03T02:01:59.509Z,2.40
2018-06-03T02:04:26.325Z,2.90
2018-06-03T02:06:53.732Z,2.70
2018-06-03T02:09:20.437Z,3.13
2018-06-03T02:11:46.650Z,2.90
2018-06-03T02:14:13.634Z,3.00
2018-06-03T02:16:40.385Z,2.67
2018-06-03T02:19:06.612Z,2.60
2018-06-03T02:21:32.837Z,2.70
2018-06-03T02:23:59.088Z,2.80
2018-06-03T02:26:25.309Z,2.70
2018-06-03T02:28:51.839Z,2.90
2018-06-03T02:31:18.795Z,2.87
2018-06-03T02:33:45.013Z,3.47
2018-06-03T02:36:11.989Z,2.70
2018-06-03T02:38:38.208Z,2.90
2018-06-03T02:41:07.839Z,3.00
2018-06-03T02:43:34.662Z,2.60
2018-06-03T02:46:01.646Z,2.87
2018-06-03T02:48:29.909Z,3.00
2018-06-03T02:50:56.128Z,2.67
2018-06-03T02:53:23.089Z,2.80
2018-06-03T02:55:49.333Z,3.10
2018-06-03T02:58:15.545Z,3.03
2018-06-03T03:00:42.590Z,3.30
2018-06-03T03:03:09.575Z,2.73
2018-06-03T03:05:36.436Z,2.80
2018-06-03T03:08:03.341Z,2.90
2018-06-03T03:10:30.313Z,2.70
2018-06-03T03:12:56.529Z,2.40
2018-06-03T03:15:23.526Z,3.77
2018-06-03T03:17:49.773Z,2.97
2018-06-03T03:20:16.101Z,3.20
2018-06-03T03:22:43.517Z,2.80
2018-06-03T03:25:10.480Z,3.13
2018-06-03T03:27:36.690Z,2.80
2018-06-03T03:30:04.123Z,3.33
2018-06-03T03:32:30.341Z,3.03
2018-06-03T03:34:56.656Z,3.20
2018-06-03T03:37:22.893Z,3.00
2018-06-03T03:39:49.108Z,3.10
2018-06-03T03:42:15.783Z,3.03
2018-06-03T03:44:42.488Z,3.27
2018-06-03T03:47:10.049Z,2.73
2018-06-03T03:49:37.453Z,3.03
2018-06-03T03:52:03.685Z,2.97
2018-06-03T03:54:29.905Z,3.13
2018-06-03T03:56:56.133Z,3.10
2018-06-03T03:59:22.349Z,3.10
2018-06-03T04:01:50.141Z,2.70
2018-06-03T04:04:16.357Z,3.10
2018-06-03T04:07:17.376Z,2.83
2018-06-03T04:09:45.328Z,3.13
2018-06-03T04:12:12.864Z,3.10
2018-06-03T04:14:40.376Z,3.03
2018-06-03T04:17:07.941Z,3.20
2018-06-03T04:19:35.470Z,3.53
2018-06-03T04:22:03.101Z,2.97
2018-06-03T04:24:30.705Z,3.33
2018-06-03T04:26:58.239Z,2.90
2018-06-03T04:29:26.309Z,3.00
2018-06-03T04:31:54.381Z,2.73
2018-06-03T04:34:22.365Z,3.50
2018-06-03T04:36:49.916Z,3.13
2018-06-03T04:39:17.437Z,3.20
2018-06-03T04:41:45.389Z,3.50
2018-06-03T04:44:14.199Z,2.90
2018-06-03T04:46:41.726Z,3.00
2018-06-03T04:49:09.757Z,3.17
2018-06-03T04:51:37.831Z,3.20
2018-06-03T04:54:05.631Z,3.00
2018-06-03T04:56:33.173Z,3.20
2018-06-03T04:59:01.549Z,2.90
2018-06-03T05:01:29.096Z,3.47
2018-06-03T05:03:56.981Z,2.60
2018-06-03T05:06:25.208Z,3.13
2018-06-03T05:08:53.189Z,3.10
2018-06-03T05:11:20.826Z,3.57
2018-06-03T05:13:48.436Z,3.10
2018-06-03T05:16:16.006Z,3.03
2018-06-03T05:18:43.525Z,2.80
2018-06-03T05:21:11.143Z,3.30
2018-06-03T05:23:39.054Z,3.10
2018-06-03T05:26:06.648Z,3.20
2018-06-03T05:28:35.218Z,2.80
2018-06-03T05:31:02.770Z,2.70
2018-06-03T05:33:30.303Z,3.17
2018-06-03T05:35:57.824Z,3.13
2018-06-03T05:38:25.381Z,2.80
2018-06-03T05:40:53.864Z,2.80
2018-06-03T05:43:21.808Z,3.10
2018-06-03T05:45:49.300Z,2.80
2018-06-03T05:48:17.305Z,2.83
2018-06-03T05:50:44.828Z,2.90
2018-06-03T05:53:12.992Z,2.87
2018-06-03T05:55:40.540Z,2.77
2018-06-03T05:58:08.616Z,2.73
2018-06-03T06:00:36.807Z,2.80
2018-06-03T06:03:04.520Z,3.27
2018-06-03T06:05:32.128Z,2.93
2018-06-03T06:08:00.046Z,2.73
2018-06-03T06:10:27.647Z,2.50
2018-06-03T06:12:55.173Z,2.70
2018-06-03T06:15:22.933Z,2.63
2018-06-03T06:17:50.449Z,2.40
2018-06-03T06:20:18.799Z,2.40
2018-06-03T06:22:46.752Z,2.40
2018-06-03T06:25:14.356Z,2.97
2018-06-03T06:27:42.356Z,2.80
2018-06-03T06:30:09.897Z,2.67
2018-06-03T06:32:37.450Z,3.00
2018-06-03T06:35:05.119Z,2.87
2018-06-03T06:37:33.328Z,2.80
2018-06-03T06:40:01.383Z,2.63
2018-06-03T06:42:29.805Z,2.80
2018-06-03T06:44:57.777Z,2.40
2018-06-03T06:47:25.316Z,2.73
2018-06-03T06:49:53.870Z,2.90
2018-06-03T06:52:21.825Z,2.60
2018-06-03T06:54:49.973Z,2.20
2018-06-03T06:57:17.632Z,2.30
2018-06-03T06:59:46.241Z,2.60
2018-06-03T07:02:14.363Z,2.83
2018-06-03T07:04:42.560Z,2.47
2018-06-03T07:07:10.258Z,2.47
2018-06-03T07:09:38.241Z,2.70
2018-06-03T07:12:05.865Z,2.33
2018-06-03T07:14:33.441Z,2.60
2018-06-03T07:17:01.101Z,3.00
2018-06-03T07:19:28.623Z,2.80
2018-06-03T07:21:56.806Z,2.57
2018-06-03T07:24:24.352Z,2.80
2018-06-03T07:26:52.009Z,2.57
2018-06-03T07:29:19.752Z,2.63
2018-06-03T07:31:47.322Z,2.80
2018-06-03T07:34:15.312Z,2.60
2018-06-03T07:36:43.383Z,2.50
2018-06-03T07:39:10.971Z,3.17
2018-06-03T07:41:39.030Z,2.50
2018-06-03T07:44:07.017Z,2.63
2018-06-03T07:46:34.635Z,2.20
2018-06-03T07:49:02.684Z,2.13
2018-06-03T07:51:31.132Z,2.20
2018-06-03T07:53:58.672Z,2.40
2018-06-03T07:56:26.557Z,2.40
2018-06-03T07:58:54.096Z,2.37
2018-06-03T08:01:22.150Z,2.50
2018-06-03T08:03:49.709Z,2.40
2018-06-03T08:06:17.237Z,2.33
2018-06-03T08:08:46.359Z,2.40
2018-06-03T08:11:13.895Z,2.63
2018-06-03T08:13:41.914Z,2.23
2018-06-03T08:16:09.477Z,2.40
2018-06-03T08:18:37.066Z,2.50
2018-06-03T08:21:04.656Z,1.90
2018-06-03T08:23:32.196Z,2.10
2018-06-03T08:25:59.816Z,2.87
2018-06-03T08:28:27.402Z,2.80
2018-06-03T08:30:56.142Z,2.50
2018-06-03T08:33:24.213Z,2.30
2018-06-03T08:35:52.100Z,1.83
2018-06-03T08:38:19.626Z,2.73
2018-06-03T08:40:47.161Z,2.10
2018-06-03T08:43:15.200Z,1.90
2018-06-03T08:45:42.721Z,2.70
2018-06-03T08:48:10.656Z,2.13
2018-06-03T08:50:38.524Z,2.17
2018-06-03T08:53:06.400Z,2.50
2018-06-03T08:55:33.958Z,2.10
2018-06-03T08:58:02.113Z,2.50
2018-06-03T09:00:29.773Z,2.50
2018-06-03T09:02:57.856Z,2.23
2018-06-03T09:05:25.859Z,2.57
2018-06-03T09:07:54.009Z,2.97
2018-06-03T09:10:21.573Z,3.10
2018-06-03T09:12:49.215Z,3.07
2018-06-03T09:15:17.213Z,3.20
2018-06-03T09:17:44.746Z,3.00
2018-06-03T09:20:12.926Z,2.47
2018-06-03T09:22:40.613Z,3.30
2018-06-03T09:25:08.172Z,2.80
2018-06-03T09:27:36.575Z,3.80
2018-06-03T09:30:04.317Z,3.87
2018-06-03T09:32:32.182Z,3.70
2018-06-03T09:35:00.349Z,3.30
2018-06-03T09:37:27.904Z,3.10
2018-06-03T09:39:55.495Z,3.10
2018-06-03T09:42:24.304Z,3.30
2018-06-03T09:44:52.804Z,3.53
2018-06-03T09:47:20.677Z,3.00
2018-06-03T09:49:48.749Z,3.33
2018-06-03T09:52:16.608Z,3.30
2018-06-03T09:54:44.141Z,3.50
2018-06-03T09:57:12.334Z,2.60
2018-06-03T09:59:40.064Z,2.93
2018-06-03T10:02:07.972Z,2.73
2018-06-03T10:04:35.611Z,2.50
2018-06-03T10:07:03.194Z,3.20
2018-06-03T10:09:31.453Z,2.90
2018-06-03T10:11:59.412Z,3.27
2018-06-03T10:14:26.963Z,2.80
2018-06-03T10:16:54.584Z,2.80
2018-06-03T10:19:23.001Z,2.77
2018-06-03T10:21:51.227Z,2.27
2018-06-03T10:24:18.807Z,3.10
2018-06-03T10:26:46.349Z,3.03
2018-06-03T10:29:14.505Z,2.53
2018-06-03T10:31:42.034Z,2.73
2018-06-03T10:34:09.557Z,3.30
2018-06-03T10:36:37.142Z,3.13
2018-06-03T10:39:06.477Z,3.00
2018-06-03T10:41:34.394Z,3.30
2018-06-03T10:44:03.648Z,3.00
2018-06-03T10:46:32.093Z,3.23
2018-06-03T10:49:00.413Z,3.10
2018-06-03T10:51:28.616Z,3.17
2018-06-03T10:53:56.133Z,3.43
2018-06-03T10:56:24.064Z,3.33
2018-06-03T10:58:51.621Z,3.33
2018-06-03T11:01:19.176Z,3.00
2018-06-03T11:03:47.271Z,3.20
2018-06-03T11:06:15.833Z,3.17
2018-06-03T11:08:43.712Z,3.10
2018-06-03T11:11:12.034Z,3.63
2018-06-03T11:13:40.342Z,3.00
2018-06-03T11:16:08.257Z,3.03
2018-06-03T11:18:36.045Z,3.33
2018-06-03T11:21:03.779Z,3.37
2018-06-03T11:23:32.350Z,2.60
2018-06-03T11:26:00.973Z,2.97
2018-06-03T11:28:28.896Z,3.30
2018-06-03T11:30:56.816Z,3.10
2018-06-03T11:33:24.858Z,2.70
2018-06-03T11:35:52.645Z,2.93
2018-06-03T11:38:20.553Z,2.70
2018-06-03T11:40:48.481Z,2.40
2018-06-03T11:43:16.419Z,2.60
2018-06-03T11:45:44.509Z,2.63
2018-06-03T11:48:13.525Z,2.50
2018-06-03T11:50:42.042Z,2.50
2018-06-03T11:53:10.066Z,2.80
2018-06-03T11:55:37.705Z,2.20
2018-06-03T11:58:42.018Z,2.13
2018-06-03T12:01:10.269Z,2.80
2018-06-03T12:03:38.776Z,3.17
2018-06-03T12:06:06.757Z,2.70
2018-06-03T12:08:34.757Z,2.63
2018-06-03T12:11:02.310Z,2.70
2018-06-03T12:13:30.920Z,3.17
2018-06-03T12:15:59.199Z,2.70
2018-06-03T12:18:27.933Z,2.17
2018-06-03T12:20:55.863Z,2.27
2018-06-03T12:23:24.331Z,2.33
2018-06-03T12:25:52.123Z,2.30
2018-06-03T12:28:19.766Z,2.63
2018-06-03T12:30:48.693Z,2.23
2018-06-03T12:33:16.217Z,2.30
2018-06-03T12:35:43.861Z,2.60
2018-06-03T12:38:11.421Z,2.27
2018-06-03T12:40:39.717Z,2.30
2018-06-03T12:43:08.208Z,2.20
2018-06-03T12:45:35.903Z,2.70
2018-06-03T12:48:04.344Z,2.43
2018-06-03T12:50:32.677Z,2.40
2018-06-03T12:53:01.112Z,2.40
2018-06-03T12:55:28.880Z,2.10
2018-06-03T12:57:57.496Z,2.60
2018-06-03T13:00:26.123Z,2.20
2018-06-03T13:02:53.905Z,2.40
2018-06-03T13:05:21.671Z,2.50
2018-06-03T13:07:50.536Z,2.47
2018-06-03T13:10:18.378Z,2.37
2018-06-03T13:12:45.936Z,2.10
2018-06-03T13:15:13.854Z,2.20
2018-06-03T13:17:41.404Z,2.10
2018-06-03T13:20:09.032Z,2.30
2018-06-03T13:22:37.504Z,2.27
2018-06-03T13:25:05.429Z,2.50
2018-06-03T13:27:33.192Z,2.90
2018-06-03T13:30:00.951Z,3.07
2018-06-03T13:32:28.642Z,2.10
2018-06-03T13:34:56.749Z,2.40
2018-06-03T13:37:25.126Z,2.60
2018-06-03T13:39:53.473Z,2.30
2018-06-03T13:42:21.762Z,2.27
2018-06-03T13:44:50.114Z,2.13
2018-06-03T13:47:18.571Z,2.30
2018-06-03T13:49:46.931Z,2.17
2018-06-03T13:52:14.437Z,2.10
2018-06-03T13:54:41.970Z,2.40
2018-06-03T13:57:09.517Z,2.30
2018-06-03T13:59:37.040Z,2.20
2018-06-03T14:02:05.005Z,1.90
2018-06-03T14:04:32.621Z,2.07
2018-06-03T14:07:00.634Z,2.13
2018-06-03T14:09:28.600Z,2.20
2018-06-03T14:11:56.449Z,1.77
2018-06-03T14:14:25.173Z,1.97
2018-06-03T14:16:52.760Z,1.80
2018-06-03T14:19:21.335Z,2.20
2018-06-03T14:21:48.828Z,1.93
2018-06-03T14:24:16.371Z,2.10
2018-06-03T14:26:44.616Z,1.70
2018-06-03T14:29:12.245Z,1.90
2018-06-03T14:31:40.515Z,1.70
2018-06-03T14:34:07.984Z,1.50
2018-06-03T14:36:36.061Z,1.70
2018-06-03T14:39:06.314Z,2.10
2018-06-03T14:41:34.672Z,2.10
2018-06-03T14:44:03.676Z,2.00
2018-06-03T14:46:31.840Z,1.70
2018-06-03T14:48:59.965Z,2.10
2018-06-03T14:51:28.768Z,1.83
2018-06-03T14:53:56.944Z,1.87
2018-06-03T14:56:24.488Z,1.87
2018-06-03T14:58:51.987Z,3.33
2018-06-03T15:01:19.650Z,1.70
2018-06-03T15:03:47.217Z,1.73
2018-06-03T15:06:14.733Z,1.90
2018-06-03T15:08:42.253Z,1.70
2018-06-03T15:11:09.814Z,1.80
2018-06-03T15:13:38.629Z,1.70
2018-06-03T15:16:07.169Z,1.93
2018-06-03T15:18:34.717Z,2.10
2018-06-03T15:21:02.729Z,1.60
2018-06-03T15:23:30.253Z,1.77
2018-06-03T15:25:58.625Z,1.80
2018-06-03T15:28:27.824Z,2.00
2018-06-03T15:30:55.360Z,1.60
2018-06-03T15:33:23.644Z,1.90
2018-06-03T15:35:51.573Z,2.13
2018-06-03T15:38:20.152Z,2.17
2018-06-03T15:40:48.401Z,1.60
2018-06-03T15:43:16.445Z,1.70
2018-06-03T15:45:44.111Z,1.80
2018-06-03T15:48:12.428Z,2.03
2018-06-03T15:50:40.055Z,1.67
2018-06-03T15:53:07.583Z,1.63
2018-06-03T15:55:35.249Z,1.60
2018-06-03T15:58:02.829Z,1.90
2018-06-03T16:00:30.518Z,1.90
2018-06-03T16:02:58.095Z,1.70
2018-06-03T16:05:25.626Z,1.70
2018-06-03T16:07:53.220Z,1.83
2018-06-03T16:10:21.409Z,1.30
2018-06-03T16:12:49.450Z,1.60
2018-06-03T16:15:18.005Z,1.47
2018-06-03T16:17:45.531Z,2.13
2018-06-03T16:20:13.302Z,1.73
2018-06-03T16:22:40.855Z,1.87
2018-06-03T16:25:08.397Z,1.80
2018-06-03T16:27:36.063Z,1.63
2018-06-03T16:30:04.622Z,1.60
2018-06-03T16:32:32.150Z,2.93
2018-06-03T16:35:00.147Z,1.57
2018-06-03T16:37:27.672Z,2.07
2018-06-03T16:39:55.193Z,1.77
2018-06-03T16:42:23.249Z,1.67
2018-06-03T16:44:51.693Z,1.80
2018-06-03T16:47:19.207Z,1.43
2018-06-03T16:49:47.788Z,1.70
2018-06-03T16:52:15.343Z,1.65
2018-06-03T16:54:42.884Z,1.80
2018-06-03T16:57:10.444Z,1.53
2018-06-03T16:59:38.451Z,1.77
2018-06-03T17:02:06.061Z,1.63
2018-06-03T17:04:34.696Z,1.30
2018-06-03T17:07:02.600Z,1.60
2018-06-03T17:09:30.204Z,1.43
2018-06-03T17:11:58.205Z,1.50
2018-06-03T17:14:25.748Z,1.70
2018-06-03T17:16:53.211Z,1.23
2018-06-03T17:19:21.309Z,1.70
2018-06-03T17:21:48.837Z,1.60
2018-06-03T17:24:16.357Z,1.00
2018-06-03T17:26:43.911Z,1.50
2018-06-03T17:29:12.189Z,1.47
2018-06-03T17:31:40.186Z,1.23
2018-06-03T17:34:07.875Z,1.20
2018-06-03T17:36:35.410Z,1.33
2018-06-03T17:39:03.935Z,1.47
2018-06-03T17:41:31.877Z,1.80
2018-06-03T17:44:00.605Z,1.60
2018-06-03T17:46:28.149Z,1.40
2018-06-03T17:48:56.171Z,1.73
2018-06-03T17:51:23.694Z,1.67
2018-06-03T17:53:51.653Z,1.77
2018-06-03T17:56:20.477Z,1.50
2018-06-03T17:58:49.011Z,1.50
2018-06-03T18:01:17.101Z,1.60
2018-06-03T18:03:45.726Z,1.70
2018-06-03T18:06:13.282Z,1.40
2018-06-03T18:08:41.034Z,1.70
2018-06-03T18:11:09.527Z,1.43
2018-06-03T18:13:37.077Z,1.47
2018-06-03T18:16:05.316Z,1.60
2018-06-03T18:18:33.312Z,1.77
2018-06-03T18:21:01.115Z,1.90
2018-06-03T18:23:29.129Z,1.80
